sensor_id;sensor_type;location;lat;lon;timestamp;P1;durP1;ratioP1;P2;durP2;ratioP2
15982;SDS011;14442;50.196;8.096;2022-08-20T00:00:35;3.53;;;3.23;;
15982;SDS011;14442;50.196;8.096;2022-08-20T00:03:05;4.93;;;3.20;;
15982;SDS011;14442;50.196;8.096;2022-08-20T00:05:36;3.50;;;3.20;;
15982;SDS011;14442;50.196;8.096;2022-08-20T00:08:05;3.37;;;3.17;;
15982;SDS011;14442;50.196;8.096;2022-08-20T00:10:33;4.40;;;3.00;;
15982;SDS011;14442;50.196;8.096;2022-08-20T00:13:02;3.30;;;2.77;;
15982;SDS011;14442;50.196;8.096;2022-08-20T00:15:31;2.57;;;2.47;;
15982;SDS011;14442;50.196;8.096;2022-08-20T00:18:00;3.50;;;2.90;;
15982;SDS011;14442;50.196;8.096;2022-08-20T00:20:28;5.87;;;3.20;;
15982;SDS011;14442;50.196;8.096;2022-08-20T00:22:58;2.83;;;2.63;;
15982;SDS011;14442;50.196;8.096;2022-08-20T00:25:25;5.10;;;2.90;;
15982;SDS011;14442;50.196;8.096;2022-08-20T00:27:53;2.60;;;2.37;;
15982;SDS011;14442;50.196;8.096;2022-08-20T00:30:20;2.53;;;2.33;;
15982;SDS011;14442;50.196;8.096;2022-08-20T00:32:48;3.43;;;2.37;;
15982;SDS011;14442;50.196;8.096;2022-08-20T00:35:18;2.20;;;2.00;;
15982;SDS011;14442;50.196;8.096;2022-08-20T00:37:46;2.00;;;1.90;;
15982;SDS011;14442;50.196;8.096;2022-08-20T00:40:16;3.37;;;2.03;;
15982;SDS011;14442;50.196;8.096;2022-08-20T00:42:49;2.50;;;1.40;;
15982;SDS011;14442;50.196;8.096;2022-08-20T00:45:18;3.57;;;1.30;;
15982;SDS011;14442;50.196;8.096;2022-08-20T00:47:45;1.27;;;1.17;;
15982;SDS011;14442;50.196;8.096;2022-08-20T00:50:13;0.80;;;0.80;;
15982;SDS011;14442;50.196;8.096;2022-08-20T00:52:43;0.70;;;0.70;;
15982;SDS011;14442;50.196;8.096;2022-08-20T00:55:15;0.80;;;0.80;;
15982;SDS011;14442;50.196;8.096;2022-08-20T00:57:44;0.83;;;0.83;;
15982;SDS011;14442;50.196;8.096;2022-08-20T01:00:15;0.60;;;0.60;;
15982;SDS011;14442;50.196;8.096;2022-08-20T01:02:43;0.60;;;0.60;;
15982;SDS011;14442;50.196;8.096;2022-08-20T01:05:11;0.80;;;0.80;;
15982;SDS011;14442;50.196;8.096;2022-08-20T01:07:39;0.60;;;0.60;;
15982;SDS011;14442;50.196;8.096;2022-08-20T01:10:09;0.60;;;0.50;;
15982;SDS011;14442;50.196;8.096;2022-08-20T01:12:41;0.73;;;0.73;;
15982;SDS011;14442;50.196;8.096;2022-08-20T01:15:10;0.70;;;0.70;;
15982;SDS011;14442;50.196;8.096;2022-08-20T01:17:42;0.80;;;0.80;;
15982;SDS011;14442;50.196;8.096;2022-08-20T01:20:15;1.53;;;0.70;;
15982;SDS011;14442;50.196;8.096;2022-08-20T01:22:45;0.80;;;0.70;;
15982;SDS011;14442;50.196;8.096;2022-08-20T01:25:46;1.67;;;0.73;;
15982;SDS011;14442;50.196;8.096;2022-08-20T01:28:15;0.87;;;0.87;;
15982;SDS011;14442;50.196;8.096;2022-08-20T01:30:46;0.77;;;0.77;;
15982;SDS011;14442;50.196;8.096;2022-08-20T01:33:13;0.80;;;0.80;;
15982;SDS011;14442;50.196;8.096;2022-08-20T01:35:40;0.77;;;0.70;;
15982;SDS011;14442;50.196;8.096;2022-08-20T01:38:08;0.53;;;0.53;;
15982;SDS011;14442;50.196;8.096;2022-08-20T01:40:43;1.27;;;0.70;;
15982;SDS011;14442;50.196;8.096;2022-08-20T01:43:20;1.13;;;0.50;;
15982;SDS011;14442;50.196;8.096;2022-08-20T01:45:48;0.70;;;0.70;;
15982;SDS011;14442;50.196;8.096;2022-08-20T01:48:15;1.27;;;0.90;;
15982;SDS011;14442;50.196;8.096;2022-08-20T01:50:43;0.83;;;0.80;;
15982;SDS011;14442;50.196;8.096;2022-08-20T01:53:17;0.93;;;0.50;;
15982;SDS011;14442;50.196;8.096;2022-08-20T01:55:50;1.53;;;0.50;;
15982;SDS011;14442;50.196;8.096;2022-08-20T01:58:17;0.50;;;0.50;;
15982;SDS011;14442;50.196;8.096;2022-08-20T02:00:44;1.67;;;0.60;;
15982;SDS011;14442;50.196;8.096;2022-08-20T02:03:11;0.60;;;0.60;;
15982;SDS011;14442;50.196;8.096;2022-08-20T02:05:38;0.60;;;0.60;;
15982;SDS011;14442;50.196;8.096;2022-08-20T02:08:05;0.70;;;0.70;;
15982;SDS011;14442;50.196;8.096;2022-08-20T02:10:31;1.43;;;0.60;;
15982;SDS011;14442;50.196;8.096;2022-08-20T02:13:00;1.57;;;0.77;;
15982;SDS011;14442;50.196;8.096;2022-08-20T02:15:29;1.27;;;0.87;;
15982;SDS011;14442;50.196;8.096;2022-08-20T02:17:56;0.80;;;0.80;;
15982;SDS011;14442;50.196;8.096;2022-08-20T02:20:26;1.40;;;0.87;;
15982;SDS011;14442;50.196;8.096;2022-08-20T02:22:56;0.80;;;0.80;;
15982;SDS011;14442;50.196;8.096;2022-08-20T02:25:25;1.03;;;1.00;;
15982;SDS011;14442;50.196;8.096;2022-08-20T02:27:54;2.73;;;0.60;;
15982;SDS011;14442;50.196;8.096;2022-08-20T02:30:30;2.10;;;1.10;;
15982;SDS011;14442;50.196;8.096;2022-08-20T02:33:00;1.07;;;0.50;;
15982;SDS011;14442;50.196;8.096;2022-08-20T02:35:28;1.10;;;0.80;;
15982;SDS011;14442;50.196;8.096;2022-08-20T02:37:56;1.07;;;0.90;;
15982;SDS011;14442;50.196;8.096;2022-08-20T02:40:24;0.80;;;0.80;;
15982;SDS011;14442;50.196;8.096;2022-08-20T02:42:52;1.70;;;0.67;;
15982;SDS011;14442;50.196;8.096;2022-08-20T02:45:20;1.70;;;0.80;;
15982;SDS011;14442;50.196;8.096;2022-08-20T02:47:48;0.60;;;0.60;;
15982;SDS011;14442;50.196;8.096;2022-08-20T02:50:17;0.70;;;0.70;;
15982;SDS011;14442;50.196;8.096;2022-08-20T02:52:45;1.03;;;0.57;;
15982;SDS011;14442;50.196;8.096;2022-08-20T02:55:12;1.70;;;0.67;;
15982;SDS011;14442;50.196;8.096;2022-08-20T02:57:39;0.80;;;0.80;;
15982;SDS011;14442;50.196;8.096;2022-08-20T03:00:06;0.63;;;0.63;;
15982;SDS011;14442;50.196;8.096;2022-08-20T03:02:35;0.80;;;0.70;;
15982;SDS011;14442;50.196;8.096;2022-08-20T03:05:03;0.67;;;0.67;;
15982;SDS011;14442;50.196;8.096;2022-08-20T03:07:30;0.70;;;0.70;;
15982;SDS011;14442;50.196;8.096;2022-08-20T03:09:57;0.87;;;0.80;;
15982;SDS011;14442;50.196;8.096;2022-08-20T03:12:24;0.77;;;0.77;;
15982;SDS011;14442;50.196;8.096;2022-08-20T03:14:51;0.90;;;0.80;;
15982;SDS011;14442;50.196;8.096;2022-08-20T03:17:17;0.77;;;0.70;;
15982;SDS011;14442;50.196;8.096;2022-08-20T03:19:44;0.50;;;0.50;;
15982;SDS011;14442;50.196;8.096;2022-08-20T03:22:12;0.63;;;0.63;;
15982;SDS011;14442;50.196;8.096;2022-08-20T03:24:39;0.70;;;0.70;;
15982;SDS011;14442;50.196;8.096;2022-08-20T03:27:06;0.73;;;0.73;;
15982;SDS011;14442;50.196;8.096;2022-08-20T03:29:33;0.73;;;0.73;;
15982;SDS011;14442;50.196;8.096;2022-08-20T03:31:59;0.80;;;0.80;;
15982;SDS011;14442;50.196;8.096;2022-08-20T03:34:26;0.93;;;0.90;;
15982;SDS011;14442;50.196;8.096;2022-08-20T03:36:53;0.90;;;0.60;;
15982;SDS011;14442;50.196;8.096;2022-08-20T03:39:21;0.67;;;0.67;;
15982;SDS011;14442;50.196;8.096;2022-08-20T03:41:48;0.73;;;0.73;;
15982;SDS011;14442;50.196;8.096;2022-08-20T03:44:14;0.60;;;0.60;;
15982;SDS011;14442;50.196;8.096;2022-08-20T03:46:42;0.60;;;0.60;;
15982;SDS011;14442;50.196;8.096;2022-08-20T03:49:09;0.77;;;0.77;;
15982;SDS011;14442;50.196;8.096;2022-08-20T03:51:36;0.70;;;0.70;;
15982;SDS011;14442;50.196;8.096;2022-08-20T03:54:02;0.73;;;0.73;;
15982;SDS011;14442;50.196;8.096;2022-08-20T03:56:30;1.17;;;0.70;;
15982;SDS011;14442;50.196;8.096;2022-08-20T03:58:57;0.90;;;0.90;;
15982;SDS011;14442;50.196;8.096;2022-08-20T04:01:24;0.90;;;0.90;;
15982;SDS011;14442;50.196;8.096;2022-08-20T04:03:51;1.97;;;0.90;;
15982;SDS011;14442;50.196;8.096;2022-08-20T04:06:17;0.70;;;0.70;;
15982;SDS011;14442;50.196;8.096;2022-08-20T04:08:44;0.67;;;0.67;;
15982;SDS011;14442;50.196;8.096;2022-08-20T04:11:11;0.87;;;0.87;;
15982;SDS011;14442;50.196;8.096;2022-08-20T04:13:39;1.07;;;0.53;;
15982;SDS011;14442;50.196;8.096;2022-08-20T04:16:05;0.70;;;0.70;;
15982;SDS011;14442;50.196;8.096;2022-08-20T04:18:33;0.80;;;0.80;;
15982;SDS011;14442;50.196;8.096;2022-08-20T04:21:01;1.63;;;0.80;;
15982;SDS011;14442;50.196;8.096;2022-08-20T04:23:29;4.00;;;0.93;;
15982;SDS011;14442;50.196;8.096;2022-08-20T04:25:57;0.90;;;0.50;;
15982;SDS011;14442;50.196;8.096;2022-08-20T04:28:24;2.20;;;0.83;;
15982;SDS011;14442;50.196;8.096;2022-08-20T04:30:54;1.37;;;0.80;;
15982;SDS011;14442;50.196;8.096;2022-08-20T04:33:22;1.30;;;0.93;;
15982;SDS011;14442;50.196;8.096;2022-08-20T04:35:50;1.20;;;0.87;;
15982;SDS011;14442;50.196;8.096;2022-08-20T04:38:18;0.83;;;0.73;;
15982;SDS011;14442;50.196;8.096;2022-08-20T04:40:46;1.43;;;0.80;;
15982;SDS011;14442;50.196;8.096;2022-08-20T04:43:22;0.87;;;0.87;;
15982;SDS011;14442;50.196;8.096;2022-08-20T04:45:51;1.07;;;0.80;;
15982;SDS011;14442;50.196;8.096;2022-08-20T04:48:21;0.77;;;0.60;;
15982;SDS011;14442;50.196;8.096;2022-08-20T04:50:50;1.07;;;0.87;;
15982;SDS011;14442;50.196;8.096;2022-08-20T04:53:18;0.60;;;0.60;;
15982;SDS011;14442;50.196;8.096;2022-08-20T04:55:48;3.20;;;1.20;;
15982;SDS011;14442;50.196;8.096;2022-08-20T04:58:16;0.97;;;0.83;;
15982;SDS011;14442;50.196;8.096;2022-08-20T05:00:45;1.13;;;0.83;;
15982;SDS011;14442;50.196;8.096;2022-08-20T05:03:14;1.13;;;0.67;;
15982;SDS011;14442;50.196;8.096;2022-08-20T05:05:42;1.10;;;1.00;;
15982;SDS011;14442;50.196;8.096;2022-08-20T05:08:10;1.00;;;0.70;;
15982;SDS011;14442;50.196;8.096;2022-08-20T05:10:38;1.00;;;1.00;;
15982;SDS011;14442;50.196;8.096;2022-08-20T05:13:05;1.73;;;0.97;;
15982;SDS011;14442;50.196;8.096;2022-08-20T05:15:33;1.30;;;1.10;;
15982;SDS011;14442;50.196;8.096;2022-08-20T05:18:03;1.00;;;0.90;;
15982;SDS011;14442;50.196;8.096;2022-08-20T05:20:33;1.23;;;0.90;;
15982;SDS011;14442;50.196;8.096;2022-08-20T05:23:04;1.13;;;1.03;;
15982;SDS011;14442;50.196;8.096;2022-08-20T05:25:33;1.00;;;1.00;;
15982;SDS011;14442;50.196;8.096;2022-08-20T05:28:02;2.23;;;0.93;;
15982;SDS011;14442;50.196;8.096;2022-08-20T05:30:33;0.83;;;0.83;;
15982;SDS011;14442;50.196;8.096;2022-08-20T05:33:03;1.20;;;1.10;;
15982;SDS011;14442;50.196;8.096;2022-08-20T05:35:34;1.00;;;0.90;;
15982;SDS011;14442;50.196;8.096;2022-08-20T05:38:02;0.77;;;0.77;;
15982;SDS011;14442;50.196;8.096;2022-08-20T05:40:30;1.07;;;1.07;;
15982;SDS011;14442;50.196;8.096;2022-08-20T05:42:56;2.43;;;1.30;;
15982;SDS011;14442;50.196;8.096;2022-08-20T05:45:23;1.97;;;1.33;;
15982;SDS011;14442;50.196;8.096;2022-08-20T05:47:50;1.00;;;1.00;;
15982;SDS011;14442;50.196;8.096;2022-08-20T05:50:16;1.70;;;1.60;;
15982;SDS011;14442;50.196;8.096;2022-08-20T05:52:45;1.30;;;1.30;;
15982;SDS011;14442;50.196;8.096;2022-08-20T05:55:12;1.63;;;1.40;;
15982;SDS011;14442;50.196;8.096;2022-08-20T05:57:39;1.50;;;1.50;;
15982;SDS011;14442;50.196;8.096;2022-08-20T06:00:07;1.70;;;1.60;;
15982;SDS011;14442;50.196;8.096;2022-08-20T06:02:36;1.73;;;1.63;;
15982;SDS011;14442;50.196;8.096;2022-08-20T06:05:21;1.70;;;1.70;;
15982;SDS011;14442;50.196;8.096;2022-08-20T06:07:49;2.10;;;2.00;;
15982;SDS011;14442;50.196;8.096;2022-08-20T06:10:17;2.10;;;2.00;;
15982;SDS011;14442;50.196;8.096;2022-08-20T06:12:44;2.40;;;1.87;;
15982;SDS011;14442;50.196;8.096;2022-08-20T06:15:11;2.20;;;2.10;;
15982;SDS011;14442;50.196;8.096;2022-08-20T06:17:38;2.33;;;2.13;;
15982;SDS011;14442;50.196;8.096;2022-08-20T06:20:06;2.40;;;2.30;;
15982;SDS011;14442;50.196;8.096;2022-08-20T06:22:34;2.37;;;2.27;;
15982;SDS011;14442;50.196;8.096;2022-08-20T06:25:04;3.07;;;2.83;;
15982;SDS011;14442;50.196;8.096;2022-08-20T06:27:31;2.60;;;2.40;;
15982;SDS011;14442;50.196;8.096;2022-08-20T06:29:58;2.40;;;2.13;;
15982;SDS011;14442;50.196;8.096;2022-08-20T06:32:25;2.70;;;2.50;;
15982;SDS011;14442;50.196;8.096;2022-08-20T06:34:52;2.47;;;2.30;;
15982;SDS011;14442;50.196;8.096;2022-08-20T06:37:19;2.70;;;2.57;;
15982;SDS011;14442;50.196;8.096;2022-08-20T06:39:51;2.30;;;2.20;;
15982;SDS011;14442;50.196;8.096;2022-08-20T06:42:20;2.47;;;2.37;;
15982;SDS011;14442;50.196;8.096;2022-08-20T06:44:47;1.93;;;1.80;;
15982;SDS011;14442;50.196;8.096;2022-08-20T06:47:15;2.40;;;2.27;;
15982;SDS011;14442;50.196;8.096;2022-08-20T06:49:42;2.23;;;2.13;;
15982;SDS011;14442;50.196;8.096;2022-08-20T06:52:09;2.43;;;2.00;;
15982;SDS011;14442;50.196;8.096;2022-08-20T06:54:36;1.97;;;1.90;;
15982;SDS011;14442;50.196;8.096;2022-08-20T06:57:03;2.20;;;2.10;;
15982;SDS011;14442;50.196;8.096;2022-08-20T06:59:32;2.00;;;1.90;;
15982;SDS011;14442;50.196;8.096;2022-08-20T07:01:58;1.80;;;1.70;;
15982;SDS011;14442;50.196;8.096;2022-08-20T07:04:25;2.30;;;2.17;;
15982;SDS011;14442;50.196;8.096;2022-08-20T07:06:52;1.63;;;1.60;;
15982;SDS011;14442;50.196;8.096;2022-08-20T07:09:21;1.70;;;1.70;;
15982;SDS011;14442;50.196;8.096;2022-08-20T07:11:49;2.37;;;1.73;;
15982;SDS011;14442;50.196;8.096;2022-08-20T07:14:16;2.10;;;2.00;;
15982;SDS011;14442;50.196;8.096;2022-08-20T07:16:45;2.20;;;1.93;;
15982;SDS011;14442;50.196;8.096;2022-08-20T07:19:13;2.30;;;2.20;;
15982;SDS011;14442;50.196;8.096;2022-08-20T07:21:40;2.87;;;2.53;;
15982;SDS011;14442;50.196;8.096;2022-08-20T07:24:07;3.03;;;2.83;;
15982;SDS011;14442;50.196;8.096;2022-08-20T07:26:34;2.93;;;2.73;;
15982;SDS011;14442;50.196;8.096;2022-08-20T07:29:01;3.07;;;2.87;;
15982;SDS011;14442;50.196;8.096;2022-08-20T07:31:28;2.37;;;2.27;;
15982;SDS011;14442;50.196;8.096;2022-08-20T07:34:14;2.70;;;2.50;;
15982;SDS011;14442;50.196;8.096;2022-08-20T07:36:41;2.63;;;2.53;;
15982;SDS011;14442;50.196;8.096;2022-08-20T07:39:08;3.00;;;2.67;;
15982;SDS011;14442;50.196;8.096;2022-08-20T07:41:34;2.80;;;2.60;;
15982;SDS011;14442;50.196;8.096;2022-08-20T07:44:01;2.57;;;2.47;;
15982;SDS011;14442;50.196;8.096;2022-08-20T07:46:28;2.40;;;2.30;;
15982;SDS011;14442;50.196;8.096;2022-08-20T07:48:56;2.10;;;2.00;;
15982;SDS011;14442;50.196;8.096;2022-08-20T07:51:24;2.30;;;2.20;;
15982;SDS011;14442;50.196;8.096;2022-08-20T07:53:51;2.23;;;2.13;;
15982;SDS011;14442;50.196;8.096;2022-08-20T07:56:19;2.47;;;2.37;;
15982;SDS011;14442;50.196;8.096;2022-08-20T07:58:48;2.30;;;2.20;;
15982;SDS011;14442;50.196;8.096;2022-08-20T08:01:17;2.00;;;1.90;;
15982;SDS011;14442;50.196;8.096;2022-08-20T08:03:45;1.80;;;1.80;;
15982;SDS011;14442;50.196;8.096;2022-08-20T08:06:12;1.67;;;1.67;;
15982;SDS011;14442;50.196;8.096;2022-08-20T08:08:40;1.73;;;1.73;;
15982;SDS011;14442;50.196;8.096;2022-08-20T08:11:07;2.40;;;2.23;;
15982;SDS011;14442;50.196;8.096;2022-08-20T08:13:35;1.67;;;1.57;;
15982;SDS011;14442;50.196;8.096;2022-08-20T08:16:05;2.43;;;2.03;;
15982;SDS011;14442;50.196;8.096;2022-08-20T08:18:34;4.47;;;2.00;;
15982;SDS011;14442;50.196;8.096;2022-08-20T08:21:05;2.67;;;1.30;;
15982;SDS011;14442;50.196;8.096;2022-08-20T08:23:33;2.23;;;1.70;;
15982;SDS011;14442;50.196;8.096;2022-08-20T08:26:01;3.03;;;1.70;;
15982;SDS011;14442;50.196;8.096;2022-08-20T08:28:28;6.07;;;1.70;;
15982;SDS011;14442;50.196;8.096;2022-08-20T08:30:55;4.77;;;1.63;;
15982;SDS011;14442;50.196;8.096;2022-08-20T08:33:22;9.33;;;1.73;;
15982;SDS011;14442;50.196;8.096;2022-08-20T08:35:55;10.20;;;2.10;;
15982;SDS011;14442;50.196;8.096;2022-08-20T08:38:23;10.67;;;1.93;;
15982;SDS011;14442;50.196;8.096;2022-08-20T08:40:50;19.90;;;2.50;;
15982;SDS011;14442;50.196;8.096;2022-08-20T08:43:20;20.00;;;3.27;;
15982;SDS011;14442;50.196;8.096;2022-08-20T08:45:57;15.27;;;2.60;;
15982;SDS011;14442;50.196;8.096;2022-08-20T08:48:30;10.03;;;2.43;;
15982;SDS011;14442;50.196;8.096;2022-08-20T08:51:00;10.23;;;2.40;;
15982;SDS011;14442;50.196;8.096;2022-08-20T08:53:33;14.47;;;2.57;;
15982;SDS011;14442;50.196;8.096;2022-08-20T08:56:02;21.93;;;4.97;;
15982;SDS011;14442;50.196;8.096;2022-08-20T08:58:32;26.03;;;7.37;;
15982;SDS011;14442;50.196;8.096;2022-08-20T09:01:00;16.90;;;4.60;;
15982;SDS011;14442;50.196;8.096;2022-08-20T09:03:30;17.53;;;3.90;;
15982;SDS011;14442;50.196;8.096;2022-08-20T09:06:01;13.23;;;3.73;;
15982;SDS011;14442;50.196;8.096;2022-08-20T09:08:29;17.30;;;5.20;;
15982;SDS011;14442;50.196;8.096;2022-08-20T09:11:02;18.47;;;4.67;;
15982;SDS011;14442;50.196;8.096;2022-08-20T09:13:31;13.60;;;4.43;;
15982;SDS011;14442;50.196;8.096;2022-08-20T09:15:58;11.50;;;3.70;;
15982;SDS011;14442;50.196;8.096;2022-08-20T09:18:25;13.47;;;3.80;;
15982;SDS011;14442;50.196;8.096;2022-08-20T09:20:52;15.33;;;4.13;;
15982;SDS011;14442;50.196;8.096;2022-08-20T09:23:19;8.70;;;3.57;;
15982;SDS011;14442;50.196;8.096;2022-08-20T09:25:46;15.37;;;4.47;;
15982;SDS011;14442;50.196;8.096;2022-08-20T09:28:13;8.83;;;3.60;;
15982;SDS011;14442;50.196;8.096;2022-08-20T09:30:41;18.97;;;3.97;;
15982;SDS011;14442;50.196;8.096;2022-08-20T09:33:08;12.60;;;3.83;;
15982;SDS011;14442;50.196;8.096;2022-08-20T09:35:35;9.10;;;3.53;;
15982;SDS011;14442;50.196;8.096;2022-08-20T09:38:04;14.93;;;3.37;;
15982;SDS011;14442;50.196;8.096;2022-08-20T09:40:30;14.43;;;3.47;;
15982;SDS011;14442;50.196;8.096;2022-08-20T09:42:57;12.40;;;3.47;;
15982;SDS011;14442;50.196;8.096;2022-08-20T09:45:24;10.57;;;3.57;;
15982;SDS011;14442;50.196;8.096;2022-08-20T09:47:52;7.63;;;3.30;;
15982;SDS011;14442;50.196;8.096;2022-08-20T09:50:19;12.07;;;3.97;;
15982;SDS011;14442;50.196;8.096;2022-08-20T09:52:47;16.13;;;4.20;;
15982;SDS011;14442;50.196;8.096;2022-08-20T09:55:19;9.80;;;3.60;;
15982;SDS011;14442;50.196;8.096;2022-08-20T09:57:47;12.00;;;3.27;;
15982;SDS011;14442;50.196;8.096;2022-08-20T10:00:17;9.83;;;3.73;;
15982;SDS011;14442;50.196;8.096;2022-08-20T10:02:44;13.33;;;4.53;;
15982;SDS011;14442;50.196;8.096;2022-08-20T10:05:13;8.93;;;3.70;;
15982;SDS011;14442;50.196;8.096;2022-08-20T10:07:40;16.27;;;4.73;;
15982;SDS011;14442;50.196;8.096;2022-08-20T10:10:08;13.17;;;3.53;;
15982;SDS011;14442;50.196;8.096;2022-08-20T10:12:36;14.63;;;4.17;;
15982;SDS011;14442;50.196;8.096;2022-08-20T10:15:05;15.17;;;3.63;;
15982;SDS011;14442;50.196;8.096;2022-08-20T10:17:35;11.40;;;3.90;;
15982;SDS011;14442;50.196;8.096;2022-08-20T10:20:03;11.80;;;3.63;;
15982;SDS011;14442;50.196;8.096;2022-08-20T10:22:32;13.00;;;4.67;;
15982;SDS011;14442;50.196;8.096;2022-08-20T10:24:59;6.90;;;3.57;;
15982;SDS011;14442;50.196;8.096;2022-08-20T10:27:26;9.70;;;3.80;;
15982;SDS011;14442;50.196;8.096;2022-08-20T10:29:52;12.23;;;3.67;;
15982;SDS011;14442;50.196;8.096;2022-08-20T10:32:19;10.20;;;3.87;;
15982;SDS011;14442;50.196;8.096;2022-08-20T10:34:46;8.57;;;3.97;;
15982;SDS011;14442;50.196;8.096;2022-08-20T10:37:13;12.23;;;3.93;;
15982;SDS011;14442;50.196;8.096;2022-08-20T10:39:43;12.50;;;4.37;;
15982;SDS011;14442;50.196;8.096;2022-08-20T10:42:10;14.87;;;4.50;;
15982;SDS011;14442;50.196;8.096;2022-08-20T10:44:37;13.07;;;4.40;;
15982;SDS011;14442;50.196;8.096;2022-08-20T10:47:14;13.97;;;4.80;;
15982;SDS011;14442;50.196;8.096;2022-08-20T10:49:42;16.67;;;4.43;;
15982;SDS011;14442;50.196;8.096;2022-08-20T10:52:09;20.07;;;4.97;;
15982;SDS011;14442;50.196;8.096;2022-08-20T10:54:36;15.00;;;4.40;;
15982;SDS011;14442;50.196;8.096;2022-08-20T10:57:06;19.27;;;5.90;;
15982;SDS011;14442;50.196;8.096;2022-08-20T10:59:37;18.90;;;5.53;;
15982;SDS011;14442;50.196;8.096;2022-08-20T11:02:04;13.43;;;5.53;;
15982;SDS011;14442;50.196;8.096;2022-08-20T11:04:31;14.87;;;5.10;;
15982;SDS011;14442;50.196;8.096;2022-08-20T11:06:58;16.67;;;5.00;;
15982;SDS011;14442;50.196;8.096;2022-08-20T11:09:36;13.03;;;4.50;;
15982;SDS011;14442;50.196;8.096;2022-08-20T11:12:03;13.83;;;4.37;;
15982;SDS011;14442;50.196;8.096;2022-08-20T11:14:31;13.53;;;4.57;;
15982;SDS011;14442;50.196;8.096;2022-08-20T11:16:58;14.33;;;4.43;;
15982;SDS011;14442;50.196;8.096;2022-08-20T11:19:25;17.10;;;4.80;;
15982;SDS011;14442;50.196;8.096;2022-08-20T11:21:52;11.67;;;3.70;;
15982;SDS011;14442;50.196;8.096;2022-08-20T11:24:18;10.00;;;3.60;;
15982;SDS011;14442;50.196;8.096;2022-08-20T11:26:45;12.00;;;3.57;;
15982;SDS011;14442;50.196;8.096;2022-08-20T11:29:13;10.90;;;3.57;;
15982;SDS011;14442;50.196;8.096;2022-08-20T11:31:41;10.87;;;3.37;;
15982;SDS011;14442;50.196;8.096;2022-08-20T11:34:08;10.90;;;3.10;;
15982;SDS011;14442;50.196;8.096;2022-08-20T11:36:35;9.80;;;3.43;;
15982;SDS011;14442;50.196;8.096;2022-08-20T11:39:02;10.37;;;3.17;;
15982;SDS011;14442;50.196;8.096;2022-08-20T11:41:29;7.73;;;3.50;;
15982;SDS011;14442;50.196;8.096;2022-08-20T11:43:56;7.97;;;2.77;;
15982;SDS011;14442;50.196;8.096;2022-08-20T11:46:23;8.40;;;2.87;;
15982;SDS011;14442;50.196;8.096;2022-08-20T11:48:51;6.10;;;2.63;;
15982;SDS011;14442;50.196;8.096;2022-08-20T11:51:17;8.07;;;2.63;;
15982;SDS011;14442;50.196;8.096;2022-08-20T11:53:44;7.03;;;3.23;;
15982;SDS011;14442;50.196;8.096;2022-08-20T11:56:11;5.57;;;2.47;;
15982;SDS011;14442;50.196;8.096;2022-08-20T11:58:40;6.77;;;2.23;;
15982;SDS011;14442;50.196;8.096;2022-08-20T12:01:07;4.77;;;2.37;;
15982;SDS011;14442;50.196;8.096;2022-08-20T12:03:34;6.57;;;2.33;;
15982;SDS011;14442;50.196;8.096;2022-08-20T12:06:02;5.33;;;2.67;;
15982;SDS011;14442;50.196;8.096;2022-08-20T12:08:29;6.47;;;2.30;;
15982;SDS011;14442;50.196;8.096;2022-08-20T12:10:56;6.63;;;2.13;;
15982;SDS011;14442;50.196;8.096;2022-08-20T12:13:25;5.23;;;1.93;;
15982;SDS011;14442;50.196;8.096;2022-08-20T12:15:53;6.90;;;2.30;;
15982;SDS011;14442;50.196;8.096;2022-08-20T12:18:20;6.47;;;2.03;;
15982;SDS011;14442;50.196;8.096;2022-08-20T12:20:47;5.73;;;2.53;;
15982;SDS011;14442;50.196;8.096;2022-08-20T12:23:15;3.87;;;2.07;;
15982;SDS011;14442;50.196;8.096;2022-08-20T12:25:42;6.83;;;2.30;;
15982;SDS011;14442;50.196;8.096;2022-08-20T12:28:10;3.90;;;1.80;;
15982;SDS011;14442;50.196;8.096;2022-08-20T12:30:38;6.43;;;1.57;;
15982;SDS011;14442;50.196;8.096;2022-08-20T12:33:05;4.57;;;2.07;;
15982;SDS011;14442;50.196;8.096;2022-08-20T12:35:32;5.67;;;1.93;;
15982;SDS011;14442;50.196;8.096;2022-08-20T12:40:26;3.87;;;1.60;;
15982;SDS011;14442;50.196;8.096;2022-08-20T12:42:53;3.23;;;1.30;;
15982;SDS011;14442;50.196;8.096;2022-08-20T12:45:20;4.90;;;1.53;;
15982;SDS011;14442;50.196;8.096;2022-08-20T12:47:47;4.03;;;1.33;;
15982;SDS011;14442;50.196;8.096;2022-08-20T12:50:15;5.57;;;1.40;;
15982;SDS011;14442;50.196;8.096;2022-08-20T12:52:43;9.50;;;1.60;;
15982;SDS011;14442;50.196;8.096;2022-08-20T12:55:11;4.67;;;1.20;;
15982;SDS011;14442;50.196;8.096;2022-08-20T12:57:42;4.43;;;1.57;;
15982;SDS011;14442;50.196;8.096;2022-08-20T13:00:11;3.67;;;1.43;;
15982;SDS011;14442;50.196;8.096;2022-08-20T13:02:40;3.30;;;1.27;;
15982;SDS011;14442;50.196;8.096;2022-08-20T13:05:07;2.73;;;1.17;;
15982;SDS011;14442;50.196;8.096;2022-08-20T13:07:35;2.10;;;1.03;;
15982;SDS011;14442;50.196;8.096;2022-08-20T13:10:03;3.43;;;1.27;;
15982;SDS011;14442;50.196;8.096;2022-08-20T13:12:31;3.17;;;1.23;;
15982;SDS011;14442;50.196;8.096;2022-08-20T13:15:00;4.43;;;1.27;;
15982;SDS011;14442;50.196;8.096;2022-08-20T13:17:26;2.77;;;0.83;;
15982;SDS011;14442;50.196;8.096;2022-08-20T13:19:53;4.17;;;1.20;;
15982;SDS011;14442;50.196;8.096;2022-08-20T13:22:20;9.70;;;1.60;;
15982;SDS011;14442;50.196;8.096;2022-08-20T13:24:47;4.13;;;1.40;;
15982;SDS011;14442;50.196;8.096;2022-08-20T13:27:15;6.40;;;1.50;;
15982;SDS011;14442;50.196;8.096;2022-08-20T13:29:44;4.53;;;1.30;;
15982;SDS011;14442;50.196;8.096;2022-08-20T13:32:13;1.60;;;0.90;;
15982;SDS011;14442;50.196;8.096;2022-08-20T13:34:40;4.97;;;0.90;;
15982;SDS011;14442;50.196;8.096;2022-08-20T13:37:10;4.23;;;1.07;;
15982;SDS011;14442;50.196;8.096;2022-08-20T13:39:38;2.37;;;0.90;;
15982;SDS011;14442;50.196;8.096;2022-08-20T13:42:05;2.70;;;0.97;;
15982;SDS011;14442;50.196;8.096;2022-08-20T13:44:32;2.97;;;0.70;;
15982;SDS011;14442;50.196;8.096;2022-08-20T13:46:58;2.03;;;0.90;;
15982;SDS011;14442;50.196;8.096;2022-08-20T13:49:27;2.53;;;0.87;;
15982;SDS011;14442;50.196;8.096;2022-08-20T13:51:53;3.93;;;1.03;;
15982;SDS011;14442;50.196;8.096;2022-08-20T13:54:20;3.17;;;1.00;;
15982;SDS011;14442;50.196;8.096;2022-08-20T13:56:47;3.43;;;0.73;;
15982;SDS011;14442;50.196;8.096;2022-08-20T13:59:13;2.17;;;0.97;;
15982;SDS011;14442;50.196;8.096;2022-08-20T14:01:40;3.77;;;0.93;;
15982;SDS011;14442;50.196;8.096;2022-08-20T14:04:07;4.40;;;0.97;;
15982;SDS011;14442;50.196;8.096;2022-08-20T14:06:35;2.90;;;0.80;;
15982;SDS011;14442;50.196;8.096;2022-08-20T14:09:02;3.90;;;0.80;;
15982;SDS011;14442;50.196;8.096;2022-08-20T14:11:28;1.20;;;0.70;;
15982;SDS011;14442;50.196;8.096;2022-08-20T14:13:55;3.97;;;0.70;;
15982;SDS011;14442;50.196;8.096;2022-08-20T14:16:22;1.73;;;0.90;;
15982;SDS011;14442;50.196;8.096;2022-08-20T14:18:48;2.20;;;0.80;;
15982;SDS011;14442;50.196;8.096;2022-08-20T14:21:15;2.40;;;0.80;;
15982;SDS011;14442;50.196;8.096;2022-08-20T14:23:43;2.70;;;0.80;;
15982;SDS011;14442;50.196;8.096;2022-08-20T14:26:10;1.53;;;0.80;;
15982;SDS011;14442;50.196;8.096;2022-08-20T14:28:37;2.50;;;0.60;;
15982;SDS011;14442;50.196;8.096;2022-08-20T14:31:03;2.20;;;0.80;;
15982;SDS011;14442;50.196;8.096;2022-08-20T14:33:30;1.83;;;0.70;;
15982;SDS011;14442;50.196;8.096;2022-08-20T14:35:57;4.40;;;1.10;;
15982;SDS011;14442;50.196;8.096;2022-08-20T14:38:24;0.60;;;0.50;;
15982;SDS011;14442;50.196;8.096;2022-08-20T14:40:52;1.90;;;0.57;;
15982;SDS011;14442;50.196;8.096;2022-08-20T14:43:18;2.53;;;0.70;;
15982;SDS011;14442;50.196;8.096;2022-08-20T14:45:45;4.30;;;0.60;;
15982;SDS011;14442;50.196;8.096;2022-08-20T14:48:12;10.83;;;2.13;;
15982;SDS011;14442;50.196;8.096;2022-08-20T14:50:39;10.30;;;1.20;;
15982;SDS011;14442;50.196;8.096;2022-08-20T14:53:06;7.13;;;1.10;;